createdAt,value
2023-03-11T00:00:06.133Z,25.84
2023-03-11T00:01:45.885Z,25.84
2023-03-11T00:03:25.648Z,25.84
2023-03-11T00:05:05.414Z,25.84
2023-03-11T00:06:45.198Z,25.84
2023-03-11T00:08:24.989Z,25.84
2023-03-11T00:10:04.778Z,25.83
2023-03-11T00:11:44.478Z,25.83
2023-03-11T00:13:24.264Z,25.83
2023-03-11T00:15:04.026Z,25.82
2023-03-11T00:16:43.797Z,25.83
2023-03-11T00:18:23.583Z,25.83
2023-03-11T00:20:03.358Z,25.83
2023-03-11T00:21:43.088Z,25.82
2023-03-11T00:23:22.872Z,25.82
2023-03-11T00:25:02.631Z,25.82
2023-03-11T00:26:42.392Z,25.82
2023-03-11T00:28:22.147Z,25.81
2023-03-11T00:30:01.918Z,25.81
2023-03-11T00:31:41.696Z,25.81
2023-03-11T00:33:21.464Z,25.81
2023-03-11T00:35:01.236Z,25.81
2023-03-11T00:36:40.997Z,25.81
2023-03-11T00:38:20.958Z,25.8
2023-03-11T00:40:00.538Z,25.78
2023-03-11T00:41:40.316Z,25.8
2023-03-11T00:43:20.134Z,25.8
2023-03-11T00:44:59.844Z,25.8
2023-03-11T00:46:39.598Z,25.8
2023-03-11T00:48:19.450Z,25.8
2023-03-11T00:49:59.129Z,25.79
2023-03-11T00:51:38.897Z,25.8
2023-03-11T00:53:18.701Z,25.79
2023-03-11T00:54:58.482Z,25.79
2023-03-11T00:56:38.202Z,25.79
2023-03-11T00:58:17.988Z,25.79
2023-03-11T00:59:57.730Z,25.79
2023-03-11T01:01:37.508Z,25.78
2023-03-11T01:03:17.300Z,25.78
2023-03-11T01:04:57.026Z,25.75
2023-03-11T01:06:36.805Z,25.78
2023-03-11T01:08:16.570Z,25.78
2023-03-11T01:09:56.332Z,25.78
2023-03-11T01:11:36.114Z,25.78
2023-03-11T01:13:15.888Z,25.78
2023-03-11T01:14:55.667Z,25.78
2023-03-11T01:16:35.413Z,25.77
2023-03-11T01:18:15.191Z,25.77
2023-03-11T01:19:54.964Z,25.77
2023-03-11T01:21:34.704Z,25.76
2023-03-11T01:23:14.489Z,25.76
2023-03-11T01:24:54.258Z,25.76
2023-03-11T01:26:34.018Z,25.76
2023-03-11T01:28:13.780Z,25.76
2023-03-11T01:31:33.309Z,25.76
2023-03-11T01:33:13.067Z,25.76
2023-03-11T01:34:52.860Z,25.76
2023-03-11T01:36:32.610Z,25.75
2023-03-11T01:38:12.401Z,25.75
2023-03-11T01:39:52.144Z,25.75
2023-03-11T01:41:31.912Z,25.75
2023-03-11T01:43:11.685Z,25.75
2023-03-11T01:44:51.443Z,25.75
2023-03-11T01:46:31.208Z,25.74
2023-03-11T01:48:10.976Z,25.74
2023-03-11T01:49:50.747Z,25.74
2023-03-11T01:51:30.513Z,25.74
2023-03-11T01:53:10.288Z,25.73
2023-03-11T01:54:50.056Z,25.58
2023-03-11T01:56:29.823Z,25.74
2023-03-11T01:58:09.578Z,25.73
2023-03-11T01:59:49.353Z,25.73
2023-03-11T02:01:29.115Z,25.73
2023-03-11T02:03:08.931Z,25.73
2023-03-11T02:04:48.656Z,25.73
2023-03-11T02:06:28.415Z,25.72
2023-03-11T02:08:08.191Z,25.72
2023-03-11T02:09:47.945Z,25.73
2023-03-11T02:11:27.764Z,25.72
2023-03-11T02:13:07.497Z,25.72
2023-03-11T02:14:47.266Z,25.71
2023-03-11T02:16:27.031Z,25.71
2023-03-11T02:18:06.794Z,25.71
2023-03-11T02:19:46.584Z,25.58
2023-03-11T02:21:26.333Z,25.71
2023-03-11T02:23:06.129Z,25.71
2023-03-11T02:24:45.881Z,25.71
2023-03-11T02:26:25.622Z,25.7
2023-03-11T02:28:05.412Z,25.7
2023-03-11T02:29:45.174Z,25.7
2023-03-11T02:31:24.934Z,25.7
2023-03-11T02:33:04.707Z,25.7
2023-03-11T02:34:44.485Z,25.7
2023-03-11T02:36:24.241Z,25.7
2023-03-11T02:38:04.008Z,25.69
2023-03-11T02:39:43.787Z,25.69
2023-03-11T02:41:23.546Z,25.69
2023-03-11T02:43:03.308Z,25.69
2023-03-11T02:44:43.095Z,25.69
2023-03-11T02:46:22.885Z,25.69
2023-03-11T02:48:02.676Z,25.69
2023-03-11T02:49:42.379Z,25.68
2023-03-11T02:51:22.137Z,25.68
2023-03-11T02:53:01.902Z,25.68
2023-03-11T02:54:41.657Z,25.68
2023-03-11T02:56:21.439Z,25.68
2023-03-11T02:58:01.219Z,25.68
2023-03-11T02:59:40.968Z,25.67
2023-03-11T03:01:20.914Z,25.67
2023-03-11T03:03:00.507Z,25.67
2023-03-11T03:04:40.278Z,25.67
2023-03-11T03:06:20.086Z,25.67
2023-03-11T03:07:59.812Z,25.66
2023-03-11T03:09:39.572Z,25.66
2023-03-11T03:11:19.350Z,25.66
2023-03-11T03:12:59.132Z,25.66
2023-03-11T03:14:38.875Z,25.66
2023-03-11T03:16:18.652Z,25.66
2023-03-11T03:17:58.408Z,25.66
2023-03-11T03:19:38.197Z,25.66
2023-03-11T03:21:17.940Z,25.66
2023-03-11T03:22:57.724Z,25.65
2023-03-11T03:24:37.488Z,25.66
2023-03-11T03:26:17.258Z,25.66
2023-03-11T03:27:57.014Z,25.65
2023-03-11T03:29:36.790Z,25.65
2023-03-11T03:31:16.559Z,25.65
2023-03-11T03:32:56.326Z,25.64
2023-03-11T03:34:36.175Z,25.65
2023-03-11T03:36:15.849Z,25.65
2023-03-11T03:37:55.621Z,25.65
2023-03-11T03:39:35.397Z,25.64
2023-03-11T03:41:15.139Z,25.64
2023-03-11T03:42:54.927Z,25.65
2023-03-11T03:44:34.682Z,25.64
2023-03-11T03:46:14.470Z,25.65
2023-03-11T03:47:54.238Z,25.64
2023-03-11T03:49:33.989Z,25.63
2023-03-11T03:51:13.770Z,25.64
2023-03-11T03:52:53.532Z,25.64
2023-03-11T03:54:33.297Z,25.63
2023-03-11T03:56:13.075Z,25.63
2023-03-11T03:57:52.824Z,25.62
2023-03-11T03:59:32.594Z,25.63
2023-03-11T04:01:12.349Z,25.63
2023-03-11T04:02:52.126Z,25.63
2023-03-11T04:04:31.918Z,25.63
2023-03-11T04:06:11.666Z,25.63
2023-03-11T04:07:51.433Z,25.63
2023-03-11T04:09:31.198Z,25.63
2023-03-11T04:11:10.973Z,25.62
2023-03-11T04:12:50.728Z,25.63
2023-03-11T04:14:30.495Z,25.62
2023-03-11T04:16:10.284Z,25.62
2023-03-11T04:17:50.043Z,25.62
2023-03-11T04:19:29.841Z,25.62
2023-03-11T04:21:09.578Z,25.62
2023-03-11T04:22:49.350Z,25.59
2023-03-11T04:24:29.115Z,25.62
2023-03-11T04:26:08.877Z,25.62
2023-03-11T04:27:48.652Z,25.62
2023-03-11T04:29:28.406Z,25.62
2023-03-11T04:31:08.166Z,25.62
2023-03-11T04:32:47.937Z,25.61
2023-03-11T04:34:27.702Z,25.61
2023-03-11T04:36:07.488Z,25.62
2023-03-11T04:37:47.258Z,25.61
2023-03-11T04:39:26.998Z,25.61
2023-03-11T04:41:06.786Z,25.61
2023-03-11T04:42:46.534Z,25.6
2023-03-11T04:44:26.303Z,25.6
2023-03-11T04:46:06.068Z,25.61
2023-03-11T04:47:45.834Z,25.52
2023-03-11T04:49:25.675Z,25.61
2023-03-11T04:51:05.377Z,25.61
2023-03-11T04:52:45.145Z,25.6
2023-03-11T04:54:24.925Z,25.61
2023-03-11T04:56:04.682Z,25.61
2023-03-11T04:57:44.455Z,25.61
2023-03-11T04:59:24.205Z,25.6
2023-03-11T05:01:03.979Z,25.6
2023-03-11T05:02:43.875Z,25.6
2023-03-11T05:04:23.574Z,25.6
2023-03-11T05:06:03.299Z,25.6
2023-03-11T05:07:43.047Z,25.6
2023-03-11T05:09:22.820Z,25.6
2023-03-11T05:11:02.577Z,25.6
2023-03-11T05:12:42.355Z,25.45
2023-03-11T05:14:22.122Z,25.6
2023-03-11T05:16:01.899Z,25.6
2023-03-11T05:17:41.649Z,25.61
2023-03-11T05:19:21.404Z,25.6
2023-03-11T05:21:01.191Z,25.6
2023-03-11T05:22:40.941Z,25.6
2023-03-11T05:24:20.719Z,25.6
2023-03-11T05:26:00.499Z,25.58
2023-03-11T05:27:40.260Z,25.58
2023-03-11T05:29:20.030Z,25.57
2023-03-11T05:30:59.787Z,25.57
2023-03-11T05:32:39.550Z,25.57
2023-03-11T05:34:19.339Z,25.55
2023-03-11T05:35:59.086Z,25.55
2023-03-11T05:37:38.869Z,25.44
2023-03-11T05:39:18.624Z,25.57
2023-03-11T05:40:58.406Z,25.57
2023-03-11T05:42:38.154Z,25.55
2023-03-11T05:44:17.948Z,25.56
2023-03-11T05:45:57.684Z,25.56
2023-03-11T05:47:37.459Z,25.56
2023-03-11T05:49:17.275Z,25.56
2023-03-11T05:50:56.993Z,25.56
2023-03-11T05:52:36.767Z,25.57
2023-03-11T05:54:16.532Z,25.57
2023-03-11T05:55:56.302Z,25.56
2023-03-11T05:57:36.066Z,25.56
2023-03-11T05:59:15.845Z,25.58
2023-03-11T06:00:55.623Z,25.57
2023-03-11T06:02:35.380Z,25.48
2023-03-11T06:04:15.151Z,25.6
2023-03-11T06:05:54.901Z,25.59
2023-03-11T06:07:34.668Z,25.59
2023-03-11T06:09:14.433Z,25.59
2023-03-11T06:10:54.203Z,25.6
2023-03-11T06:12:33.979Z,25.6
2023-03-11T06:14:13.751Z,25.6
2023-03-11T06:15:53.508Z,25.59
2023-03-11T06:17:33.296Z,25.6
2023-03-11T06:19:13.059Z,25.6
2023-03-11T06:20:52.814Z,25.6
2023-03-11T06:22:32.575Z,25.61
2023-03-11T06:24:12.333Z,25.61
2023-03-11T06:25:52.119Z,25.63
2023-03-11T06:27:31.885Z,25.56
2023-03-11T06:29:11.653Z,25.63
2023-03-11T06:30:51.411Z,25.63
2023-03-11T06:32:31.193Z,25.64
2023-03-11T06:34:10.973Z,25.64
2023-03-11T06:35:50.726Z,25.62
2023-03-11T06:37:30.493Z,25.6
2023-03-11T06:39:10.255Z,25.6
2023-03-11T06:40:50.015Z,25.59
2023-03-11T06:42:29.846Z,25.59
2023-03-11T06:44:09.550Z,25.58
2023-03-11T06:45:49.322Z,25.58
2023-03-11T06:47:29.116Z,25.58
2023-03-11T06:49:08.851Z,25.6
2023-03-11T06:50:48.613Z,25.59
2023-03-11T06:52:28.393Z,25.59
2023-03-11T06:54:08.160Z,25.6
2023-03-11T06:55:47.932Z,25.59
2023-03-11T06:57:27.716Z,25.58
2023-03-11T06:59:07.539Z,25.59
2023-03-11T07:00:47.240Z,25.58
2023-03-11T07:02:26.997Z,25.6
2023-03-11T07:04:06.756Z,25.6
2023-03-11T07:05:46.535Z,25.61
2023-03-11T07:07:26.317Z,25.61
2023-03-11T07:09:06.103Z,25.62
2023-03-11T07:10:45.824Z,25.62
2023-03-11T07:12:25.602Z,25.65
2023-03-11T07:14:05.380Z,25.65
2023-03-11T07:15:45.144Z,25.64
2023-03-11T07:17:24.895Z,25.66
2023-03-11T07:19:04.701Z,25.7
2023-03-11T07:20:44.445Z,25.71
2023-03-11T07:22:24.202Z,25.72
2023-03-11T07:24:03.986Z,25.73
2023-03-11T07:25:43.745Z,25.76
2023-03-11T07:27:23.522Z,25.88
2023-03-11T07:29:03.288Z,25.91
2023-03-11T07:30:43.049Z,25.93
2023-03-11T07:32:22.835Z,25.96
2023-03-11T07:34:02.610Z,26.01
2023-03-11T07:35:42.376Z,26.03
2023-03-11T07:37:22.122Z,26.04
2023-03-11T07:39:01.886Z,26.04
2023-03-11T07:40:41.677Z,26.02
2023-03-11T07:42:21.438Z,25.89
2023-03-11T07:44:01.204Z,26.03
2023-03-11T07:45:40.968Z,26.06
2023-03-11T07:47:20.777Z,26.03
2023-03-11T07:49:00.523Z,25.99
2023-03-11T07:50:40.281Z,25.99
2023-03-11T07:52:20.063Z,26
2023-03-11T07:53:59.878Z,26.01
2023-03-11T07:55:39.632Z,26.08
2023-03-11T07:57:19.366Z,26.13
2023-03-11T07:58:59.133Z,26.13
2023-03-11T08:00:39.083Z,26.15
2023-03-11T08:02:18.662Z,26.15
2023-03-11T08:03:58.448Z,26.26
2023-03-11T08:05:38.221Z,26.31
2023-03-11T08:07:17.995Z,26.33
2023-03-11T08:08:57.764Z,26.35
2023-03-11T08:10:37.527Z,26.43
2023-03-11T08:12:17.295Z,26.51
2023-03-11T08:13:57.096Z,26.51
2023-03-11T08:15:36.837Z,26.58
2023-03-11T08:17:16.613Z,26.68
2023-03-11T08:18:56.376Z,26.69
2023-03-11T08:20:36.198Z,26.71
2023-03-11T08:22:15.908Z,26.73
2023-03-11T08:23:55.679Z,26.8
2023-03-11T08:25:35.483Z,26.79
2023-03-11T08:27:15.230Z,27
2023-03-11T08:28:54.989Z,27.31
2023-03-11T08:30:34.776Z,27.14
2023-03-11T08:32:14.556Z,27.19
2023-03-11T08:33:54.304Z,27.02
2023-03-11T08:35:34.070Z,27.43
2023-03-11T08:37:13.855Z,27.4
2023-03-11T08:38:53.647Z,27.56
2023-03-11T08:40:33.386Z,27.56
2023-03-11T08:42:13.156Z,27.74
2023-03-11T08:43:52.952Z,27.73
2023-03-11T08:45:32.725Z,27.79
2023-03-11T08:47:12.461Z,27.94
2023-03-11T08:48:52.238Z,28.37
2023-03-11T08:50:32.002Z,28.66
2023-03-11T08:52:11.772Z,28.87
2023-03-11T08:53:51.544Z,28.39
2023-03-11T08:55:31.330Z,29.64
2023-03-11T08:57:11.084Z,28.51
2023-03-11T08:58:50.851Z,29.26
2023-03-11T09:00:30.685Z,29.67
2023-03-11T09:02:10.401Z,29.62
2023-03-11T09:03:50.181Z,29.69
2023-03-11T09:05:29.986Z,29.7
2023-03-11T09:07:09.695Z,29.39
2023-03-11T09:08:49.495Z,29.69
2023-03-11T09:10:29.238Z,29.67
2023-03-11T09:12:09.016Z,29.7
2023-03-11T09:13:48.844Z,29.68
2023-03-11T09:15:28.559Z,29.67
2023-03-11T09:17:08.315Z,29.27
2023-03-11T09:18:48.093Z,28.96
2023-03-11T09:20:27.860Z,28.73
2023-03-11T09:22:07.638Z,28.77
2023-03-11T09:23:47.439Z,29.67
2023-03-11T09:25:27.192Z,29.48
2023-03-11T09:27:06.940Z,29.68
2023-03-11T09:28:46.792Z,29.67
2023-03-11T09:30:26.490Z,29.68
2023-03-11T09:32:06.325Z,29.68
2023-03-11T09:33:46.092Z,29.67
2023-03-11T09:35:25.800Z,29.78
2023-03-11T09:37:05.798Z,29.65
2023-03-11T09:38:45.344Z,29.68
2023-03-11T09:40:25.118Z,29.67
2023-03-11T09:42:04.897Z,29.68
2023-03-11T09:43:44.660Z,29.67
2023-03-11T09:45:24.413Z,29.68
2023-03-11T09:47:04.203Z,29.68
2023-03-11T09:48:43.953Z,29.67
2023-03-11T09:50:23.737Z,29.66
2023-03-11T09:52:03.495Z,29.67
2023-03-11T09:53:43.322Z,29.67
2023-03-11T09:55:23.050Z,29.66
2023-03-11T09:57:02.818Z,29.66
2023-03-11T09:58:42.605Z,29.67
2023-03-11T10:00:22.394Z,29.67
2023-03-11T10:02:02.140Z,29.66
2023-03-11T10:03:41.895Z,29.66
2023-03-11T10:05:21.663Z,29.67
2023-03-11T10:07:01.429Z,29.66
2023-03-11T10:08:41.213Z,29.64
2023-03-11T10:10:20.991Z,29.67
2023-03-11T10:12:00.759Z,29.67
2023-03-11T10:13:40.516Z,29.68
2023-03-11T10:15:20.300Z,29.62
2023-03-11T10:17:00.064Z,29.59
2023-03-11T10:18:39.856Z,29.66
2023-03-11T10:20:19.596Z,29.67
2023-03-11T10:21:59.418Z,29.65
2023-03-11T10:23:39.138Z,29.65
2023-03-11T10:25:18.901Z,29.65
2023-03-11T10:26:58.670Z,29.64
2023-03-11T10:28:38.466Z,29.65
2023-03-11T10:30:18.218Z,29.64
2023-03-11T10:31:57.987Z,29.58
2023-03-11T10:33:37.754Z,29.65
2023-03-11T10:35:17.533Z,29.65
2023-03-11T10:36:57.292Z,29.64
2023-03-11T10:38:37.094Z,29.64
2023-03-11T10:40:16.842Z,29.64
2023-03-11T10:41:56.632Z,29.65
2023-03-11T10:43:36.412Z,29.41
2023-03-11T10:45:16.204Z,29.66
2023-03-11T10:46:56.030Z,29.65
2023-03-11T10:48:35.753Z,29.67
2023-03-11T10:50:15.465Z,29.67
2023-03-11T10:51:55.221Z,29.65
2023-03-11T10:53:35.147Z,29.65
2023-03-11T10:55:14.829Z,29.64
2023-03-11T10:56:54.536Z,29.64
2023-03-11T10:58:34.307Z,29.64
2023-03-11T11:00:14.080Z,29.64
2023-03-11T11:01:53.854Z,29.64
2023-03-11T11:03:33.624Z,29.63
2023-03-11T11:05:13.381Z,29.65
2023-03-11T11:06:53.207Z,29.63
2023-03-11T11:08:32.933Z,29.62
2023-03-11T11:10:12.706Z,29.65
2023-03-11T11:11:52.478Z,29.65
2023-03-11T11:13:32.242Z,29.64
2023-03-11T11:15:12.010Z,29.64
2023-03-11T11:16:51.803Z,29.64
2023-03-11T11:18:31.631Z,29.65
2023-03-11T11:20:11.330Z,29.65
2023-03-11T11:21:51.103Z,29.64
2023-03-11T11:23:30.867Z,29.64
2023-03-11T11:25:10.642Z,29.63
2023-03-11T11:26:50.408Z,29.64
2023-03-11T11:28:30.222Z,29.63
2023-03-11T11:30:10.028Z,29.63
2023-03-11T11:31:49.726Z,29.63
2023-03-11T11:33:29.476Z,29.63
2023-03-11T11:35:09.279Z,29.52
2023-03-11T11:36:49.021Z,29.64
2023-03-11T11:38:28.806Z,29.52
2023-03-11T11:40:08.574Z,29.66
2023-03-11T11:41:48.343Z,29.66
2023-03-11T11:43:28.104Z,29.64
2023-03-11T11:45:07.876Z,29.64
2023-03-11T11:46:47.645Z,29.61
2023-03-11T11:48:27.421Z,29.63
2023-03-11T11:50:07.168Z,29.63
2023-03-11T11:51:46.966Z,29.62
2023-03-11T11:53:26.724Z,29.63
2023-03-11T11:55:06.501Z,29.62
2023-03-11T11:56:46.269Z,29.63
2023-03-11T11:58:26.034Z,29.62
2023-03-11T12:00:05.808Z,29.62
2023-03-11T12:01:45.591Z,29.58
2023-03-11T12:03:25.350Z,29.62
2023-03-11T12:05:05.114Z,29.63
2023-03-11T12:06:44.882Z,29.54
2023-03-11T12:08:24.663Z,29.63
2023-03-11T12:10:04.493Z,29.62
2023-03-11T12:11:44.202Z,29.62
2023-03-11T12:13:23.980Z,29.62
2023-03-11T12:15:03.730Z,29.64
2023-03-11T12:16:43.504Z,29.61
2023-03-11T12:18:23.273Z,29.62
2023-03-11T12:20:03.056Z,29.63
2023-03-11T12:21:42.818Z,29.62
2023-03-11T12:23:22.591Z,28.28
2023-03-11T12:25:02.357Z,28.07
2023-03-11T12:26:42.118Z,27.94
2023-03-11T12:28:21.917Z,27.87
2023-03-11T12:30:01.685Z,27.78
2023-03-11T12:31:41.439Z,27.76
2023-03-11T12:33:21.213Z,27.82
2023-03-11T12:35:00.964Z,27.82
2023-03-11T12:36:40.761Z,27.83
2023-03-11T12:38:20.531Z,27.82
2023-03-11T12:40:00.523Z,27.82
2023-03-11T12:41:40.071Z,27.82
2023-03-11T12:43:19.830Z,27.81
2023-03-11T12:44:59.585Z,27.83
2023-03-11T12:46:39.371Z,27.83
2023-03-11T12:48:19.132Z,27.83
2023-03-11T12:49:58.895Z,27.83
2023-03-11T12:51:38.732Z,27.83
2023-03-11T12:53:18.458Z,27.67
2023-03-11T12:54:58.212Z,27.81
2023-03-11T12:56:37.992Z,27.83
2023-03-11T12:58:17.767Z,27.83
2023-03-11T12:59:57.529Z,27.82
2023-03-11T13:01:37.317Z,27.82
2023-03-11T13:03:17.067Z,27.82
2023-03-11T13:04:56.836Z,27.82
2023-03-11T13:06:36.650Z,27.82
2023-03-11T13:08:16.386Z,27.82
2023-03-11T13:09:56.156Z,27.83
2023-03-11T13:11:35.979Z,27.82
2023-03-11T13:13:15.713Z,27.83
2023-03-11T13:14:55.475Z,27.82
2023-03-11T13:16:35.309Z,27.82
2023-03-11T13:18:15.007Z,27.81
2023-03-11T13:19:54.791Z,27.82
2023-03-11T13:21:34.540Z,27.81
2023-03-11T13:23:14.327Z,27.82
2023-03-11T13:24:54.097Z,27.81
2023-03-11T13:26:33.856Z,27.83
2023-03-11T13:28:13.620Z,27.83
2023-03-11T13:29:53.396Z,27.83
2023-03-11T13:31:33.173Z,27.82
2023-03-11T13:33:12.926Z,27.81
2023-03-11T13:34:52.706Z,27.82
2023-03-11T13:36:32.491Z,27.82
2023-03-11T13:38:12.265Z,27.82
2023-03-11T13:39:52.074Z,27.81
2023-03-11T13:41:31.875Z,27.81
2023-03-11T13:43:11.591Z,27.82
2023-03-11T13:44:51.335Z,27.64
2023-03-11T13:46:31.108Z,27.81
2023-03-11T13:48:10.871Z,27.82
2023-03-11T13:49:50.721Z,27.82
2023-03-11T13:51:30.442Z,27.82
2023-03-11T13:53:10.263Z,27.81
2023-03-11T13:54:49.972Z,27.82
2023-03-11T13:56:29.731Z,27.8
2023-03-11T13:58:09.491Z,27.81
2023-03-11T13:59:49.260Z,27.82
2023-03-11T14:01:29.037Z,27.82
2023-03-11T14:03:08.798Z,27.81
2023-03-11T14:04:48.565Z,27.81
2023-03-11T14:06:28.342Z,27.8
2023-03-11T14:08:08.119Z,27.81
2023-03-11T14:09:47.885Z,27.81
2023-03-11T14:11:27.652Z,27.81
2023-03-11T14:13:07.428Z,27.82
2023-03-11T14:14:47.193Z,27.81
2023-03-11T14:16:26.953Z,27.82
2023-03-11T14:18:06.728Z,27.82
2023-03-11T14:19:46.494Z,27.81
2023-03-11T14:21:26.292Z,27.8
2023-03-11T14:23:06.034Z,27.81
2023-03-11T14:24:45.806Z,27.8
2023-03-11T14:26:25.621Z,27.81
2023-03-11T14:28:05.415Z,27.8
2023-03-11T14:29:45.128Z,27.8
2023-03-11T14:31:24.883Z,27.8
2023-03-11T14:33:04.652Z,27.8
2023-03-11T14:34:44.420Z,27.79
2023-03-11T14:36:24.201Z,27.73
2023-03-11T14:38:03.983Z,27.8
2023-03-11T14:39:43.736Z,27.82
2023-03-11T14:41:23.509Z,27.81
2023-03-11T14:43:03.276Z,27.8
2023-03-11T14:44:43.068Z,27.8
2023-03-11T14:46:22.809Z,27.8
2023-03-11T14:48:02.599Z,27.8
2023-03-11T14:49:42.351Z,27.81
2023-03-11T14:51:22.169Z,27.8
2023-03-11T14:53:01.949Z,27.79
2023-03-11T14:54:41.674Z,27.81
2023-03-11T14:56:21.423Z,27.8
2023-03-11T14:58:01.212Z,27.8
2023-03-11T14:59:40.965Z,27.79
2023-03-11T15:01:20.743Z,27.79
2023-03-11T15:03:00.506Z,27.78
2023-03-11T15:04:40.409Z,27.82
2023-03-11T15:06:20.251Z,27.79
2023-03-11T15:07:59.926Z,27.81
2023-03-11T15:09:39.733Z,27.81
2023-03-11T15:11:19.382Z,27.8
2023-03-11T15:12:59.163Z,27.81
2023-03-11T15:14:38.982Z,27.79
2023-03-11T15:16:18.666Z,27.8
2023-03-11T15:17:58.440Z,27.81
2023-03-11T15:19:38.264Z,27.8
2023-03-11T15:21:18.007Z,27.81
2023-03-11T15:22:57.758Z,27.8
2023-03-11T15:24:37.518Z,27.79
2023-03-11T15:26:17.325Z,27.79
2023-03-11T15:27:57.064Z,27.75
2023-03-11T15:29:36.833Z,27.81
2023-03-11T15:31:16.593Z,27.8
2023-03-11T15:32:56.372Z,27.8
2023-03-11T15:34:36.160Z,27.79
2023-03-11T15:36:15.898Z,27.8
2023-03-11T15:37:55.683Z,27.8
2023-03-11T15:39:35.510Z,27.8
2023-03-11T15:41:15.213Z,27.8
2023-03-11T15:42:55.003Z,27.79
2023-03-11T15:44:34.782Z,27.79
2023-03-11T15:46:14.523Z,27.8
2023-03-11T15:47:54.328Z,27.79
2023-03-11T15:49:34.057Z,27.79
2023-03-11T15:51:13.834Z,27.79
2023-03-11T15:52:53.594Z,27.78
2023-03-11T15:54:33.379Z,27.77
2023-03-11T15:56:13.134Z,27.8
2023-03-11T15:57:52.909Z,27.79
2023-03-11T15:59:32.677Z,27.8
2023-03-11T16:01:12.464Z,27.79
2023-03-11T16:02:52.226Z,27.8
2023-03-11T16:04:31.993Z,27.8
2023-03-11T16:06:11.760Z,27.8
2023-03-11T16:07:51.524Z,27.79
2023-03-11T16:09:31.289Z,27.79
2023-03-11T16:11:11.066Z,27.8
2023-03-11T16:12:50.829Z,27.79
2023-03-11T16:14:30.617Z,27.8
2023-03-11T16:16:10.403Z,27.79
2023-03-11T16:17:50.145Z,27.79
2023-03-11T16:19:29.925Z,27.63
2023-03-11T16:21:09.675Z,27.8
2023-03-11T16:22:49.453Z,27.8
2023-03-11T16:24:29.249Z,27.79
2023-03-11T16:26:08.987Z,27.79
2023-03-11T16:27:48.774Z,27.79
2023-03-11T16:29:28.535Z,27.79
2023-03-11T16:31:08.310Z,27.79
2023-03-11T16:32:48.073Z,27.8
2023-03-11T16:34:27.847Z,27.8
2023-03-11T16:36:07.615Z,27.79
2023-03-11T16:37:47.404Z,27.79
2023-03-11T16:39:27.170Z,27.79
2023-03-11T16:41:06.932Z,27.79
2023-03-11T16:42:46.691Z,27.74
2023-03-11T16:44:26.467Z,27.69
2023-03-11T16:46:06.272Z,27.63
2023-03-11T16:47:46.008Z,27.56
2023-03-11T16:49:25.773Z,27.49
2023-03-11T16:51:05.554Z,27.46
2023-03-11T16:52:45.305Z,27.42
2023-03-11T16:54:25.091Z,27.36
2023-03-11T16:56:04.897Z,27.31
2023-03-11T16:57:44.613Z,27.28
2023-03-11T16:59:24.399Z,27.24
2023-03-11T17:01:04.171Z,27.21
2023-03-11T17:02:43.932Z,27.19
2023-03-11T17:04:23.710Z,27.14
2023-03-11T17:06:03.479Z,27.09
2023-03-11T17:07:43.263Z,27.07
2023-03-11T17:09:23.012Z,27.02
2023-03-11T17:11:02.763Z,26.89
2023-03-11T17:12:42.556Z,26.97
2023-03-11T17:14:22.328Z,26.95
2023-03-11T17:16:02.080Z,26.91
2023-03-11T17:17:41.838Z,26.88
2023-03-11T17:19:21.620Z,26.84
2023-03-11T17:21:01.401Z,26.83
2023-03-11T17:22:41.137Z,26.81
2023-03-11T17:24:20.918Z,26.78
2023-03-11T17:26:00.678Z,26.75
2023-03-11T17:27:40.439Z,26.75
2023-03-11T17:29:20.260Z,26.73
2023-03-11T17:30:59.988Z,26.71
2023-03-11T17:32:39.744Z,26.7
2023-03-11T17:34:19.534Z,26.68
2023-03-11T17:35:59.301Z,26.64
2023-03-11T17:37:39.041Z,26.65
2023-03-11T17:39:18.806Z,26.64
2023-03-11T17:40:58.589Z,26.63
2023-03-11T17:42:38.354Z,26.61
2023-03-11T17:44:18.108Z,26.59
2023-03-11T17:45:57.884Z,26.58
2023-03-11T17:47:37.662Z,26.57
2023-03-11T17:49:17.415Z,26.56
2023-03-11T17:50:57.228Z,26.55
2023-03-11T17:52:36.951Z,26.53
2023-03-11T17:54:16.727Z,26.52
2023-03-11T17:55:56.487Z,26.51
2023-03-11T17:57:36.333Z,26.5
2023-03-11T17:59:16.020Z,26.48
2023-03-11T18:00:55.785Z,26.48
2023-03-11T18:02:35.552Z,26.47
2023-03-11T18:04:15.318Z,26.46
2023-03-11T18:05:55.152Z,26.45
2023-03-11T18:07:34.846Z,26.44
2023-03-11T18:09:14.611Z,26.43
2023-03-11T18:10:54.399Z,26.42
2023-03-11T18:12:34.180Z,26.41
2023-03-11T18:14:13.953Z,26.41
2023-03-11T18:15:53.703Z,26.4
2023-03-11T18:17:33.476Z,26.39
2023-03-11T18:19:13.337Z,26.38
2023-03-11T18:20:52.996Z,26.37
2023-03-11T18:22:32.752Z,26.37
2023-03-11T18:24:12.539Z,26.35
2023-03-11T18:25:52.282Z,26.34
2023-03-11T18:27:32.078Z,26.34
2023-03-11T18:29:11.839Z,26.33
2023-03-11T18:30:51.606Z,26.33
2023-03-11T18:32:31.378Z,26.32
2023-03-11T18:34:11.128Z,26.31
2023-03-11T18:35:50.901Z,26.31
2023-03-11T18:37:30.654Z,26.3
2023-03-11T18:39:10.424Z,26.3
2023-03-11T18:40:50.197Z,26.29
2023-03-11T18:42:29.966Z,26.28
2023-03-11T18:44:09.732Z,26.28
2023-03-11T18:45:49.494Z,26.28
2023-03-11T18:47:29.259Z,26.26
2023-03-11T18:49:09.077Z,26.25
2023-03-11T18:50:48.791Z,26.26
2023-03-11T18:52:28.568Z,26.25
2023-03-11T18:54:08.346Z,26.25
2023-03-11T18:55:48.102Z,26.24
2023-03-11T18:57:27.864Z,26.24
2023-03-11T18:59:07.686Z,26.23
2023-03-11T19:00:47.440Z,26.23
2023-03-11T19:02:27.168Z,26.22
2023-03-11T19:04:06.937Z,26.22
2023-03-11T19:05:46.700Z,26.22
2023-03-11T19:07:26.483Z,26.21
2023-03-11T19:09:06.233Z,26.21
2023-03-11T19:10:46.004Z,26.2
2023-03-11T19:12:25.781Z,26.2
2023-03-11T19:14:05.549Z,26.17
2023-03-11T19:15:45.315Z,26.19
2023-03-11T19:17:25.157Z,26.19
2023-03-11T19:19:04.861Z,26.18
2023-03-11T19:20:44.645Z,26.18
2023-03-11T19:22:24.391Z,26.18
2023-03-11T19:24:04.145Z,26.18
2023-03-11T19:25:43.928Z,26.17
2023-03-11T19:27:23.686Z,26.17
2023-03-11T19:29:03.453Z,26.17
2023-03-11T19:30:43.230Z,26.16
2023-03-11T19:32:22.990Z,26.16
2023-03-11T19:34:02.748Z,26.16
2023-03-11T19:35:42.516Z,26.15
2023-03-11T19:37:22.286Z,26.15
2023-03-11T19:39:02.053Z,26.11
2023-03-11T19:40:42.058Z,26.15
2023-03-11T19:42:21.780Z,26.15
2023-03-11T19:44:01.574Z,26.14
2023-03-11T19:45:41.112Z,26.14
2023-03-11T19:47:20.884Z,26.14
2023-03-11T19:49:00.655Z,26.14
2023-03-11T19:50:40.425Z,26.13
2023-03-11T19:52:20.186Z,26.13
2023-03-11T19:53:59.966Z,26.13
2023-03-11T19:55:39.731Z,26.12
2023-03-11T19:57:19.525Z,26.12
2023-03-11T19:58:59.268Z,26.12
2023-03-11T20:00:39.026Z,26.11
2023-03-11T20:02:18.798Z,26.11
2023-03-11T20:03:58.593Z,25.98
2023-03-11T20:05:38.323Z,26.12
2023-03-11T20:07:18.095Z,26.12
2023-03-11T20:08:57.873Z,26.11
2023-03-11T20:10:37.638Z,26.11
2023-03-11T20:12:17.413Z,26.1
2023-03-11T20:13:57.165Z,26.1
2023-03-11T20:15:36.959Z,26.1
2023-03-11T20:17:16.857Z,26.1
2023-03-11T20:18:56.669Z,26.1
2023-03-11T20:20:36.233Z,26.1
2023-03-11T20:22:16.104Z,26.1
2023-03-11T20:23:55.857Z,26.09
2023-03-11T20:25:35.540Z,26.09
2023-03-11T20:27:15.361Z,26.08
2023-03-11T20:28:55.065Z,25.94
2023-03-11T20:30:34.861Z,26.08
2023-03-11T20:32:14.656Z,26.08
2023-03-11T20:33:54.371Z,26.08
2023-03-11T20:35:34.161Z,26.07
2023-03-11T20:37:13.929Z,26.08
2023-03-11T20:38:53.722Z,26.08
2023-03-11T20:40:33.457Z,26.08
2023-03-11T20:42:13.203Z,26.07
2023-03-11T20:43:52.986Z,26.07
2023-03-11T20:45:32.803Z,26.07
2023-03-11T20:47:12.506Z,26.06
2023-03-11T20:48:52.280Z,26.06
2023-03-11T20:50:32.043Z,26.06
2023-03-11T20:52:11.822Z,26.05
2023-03-11T20:53:51.596Z,25.99
2023-03-11T20:55:31.348Z,26.06
2023-03-11T20:57:11.148Z,26.05
2023-03-11T20:58:50.883Z,26.05
2023-03-11T21:00:30.705Z,26.05
2023-03-11T21:02:10.444Z,26.05
2023-03-11T21:03:50.179Z,26.05
2023-03-11T21:05:29.958Z,26.05
2023-03-11T21:07:09.724Z,26.04
2023-03-11T21:08:49.582Z,26.04
2023-03-11T21:10:29.347Z,26.04
2023-03-11T21:12:09.125Z,26.04
2023-03-11T21:13:48.882Z,26.04
2023-03-11T21:15:28.671Z,26.04
2023-03-11T21:17:08.415Z,26.03
2023-03-11T21:18:48.210Z,26.04
2023-03-11T21:20:27.955Z,26.02
2023-03-11T21:22:07.727Z,26.04
2023-03-11T21:23:47.493Z,26.03
2023-03-11T21:25:27.276Z,26.03
2023-03-11T21:27:07.069Z,26.03
2023-03-11T21:28:46.783Z,26.03
2023-03-11T21:30:26.587Z,26.03
2023-03-11T21:32:06.322Z,26.02